Time;durP1;ratioP1;P1;durP2;ratioP2;P2;SDS_P1;SDS_P2;PMS_P1;PMS_P2;Temp;Humidity;BMP_temperature;BMP_pressure;BME280_temperature;BME280_humidity;BME280_pressure;Samples;Min_cycle;Max_cycle;Signal;HPM_P1;HPM_P2
2021/09/13 00:01:15;;;;;;;;;;;;;;;;;;;;;
2021/09/13 00:06:45;;;;;;;;;;;;;;;;;;;;;
2021/09/13 00:09:00;;;;;;;;;;;;;;;;;;;;;
2021/09/13 00:11:37;;;;;;;;;;;;;;;;;;;;;
2021/09/13 00:14:18;;;;;;;;;;;;;;;;;;;;;
2021/09/13 00:19:25;;;;;;;;;;;;;;;;;;;;;
2021/09/13 00:21:51;;;;;;;;;;;;;;;;;;;;;
2021/09/13 00:24:31;;;;;;;;;;;;;;;;;;;;;
2021/09/13 00:27:11;;;;;;;;;;;;;;;;;;;;;
2021/09/13 00:29:39;;;;;;;;;;;;;;;13.22;93.63;98108.05;1513486;91;20514;-82
2021/09/13 00:32:20;;;;;;;;;;;;;;;;;;;;;
2021/09/13 00:34:54;;;;;;;;;;;;;;;;;;;;;
2021/09/13 00:37:29;;;;;;;;;;;;;;;;;;;;;
2021/09/13 00:40:03;;;;;;;;;;;;;;;;;;;;;
2021/09/13 00:42:41;;;;;;;;;;;;;;;;;;;;;
2021/09/13 00:45:18;;;;;;;;;;;;;;;;;;;;;
2021/09/13 00:50:23;;;;;;;;;;;;;;;;;;;;;
2021/09/13 00:53:25;;;;;;;;;;;;;;;;;;;;;
2021/09/13 00:55:35;;;;;;;;;;;;;;;;;;;;;
2021/09/13 00:58:09;;;;;;;;;;;;;;;;;;;;;
2021/09/13 01:00:39;;;;;;;;;;;;;;;12.87;93.68;98100.35;1455909;97;20220;-82
2021/09/13 01:08:45;;;;;;;;;;;;;;;;;;;;;
2021/09/13 01:11:02;;;;;;;;;;;;;;;;;;;;;
2021/09/13 01:13:34;;;;;;;;;;;;;;;;;;;;;
2021/09/13 01:23:42;;;;;;;;;;;;;;;;;;;;;
2021/09/13 01:26:22;;;;;;;;;;;;;;;;;;;;;
2021/09/13 01:28:46;;;;;;;;;;;;;;;12.52;93.46;98089.38;1598929;89;20198;-80
2021/09/13 01:31:29;;;;;;;;;;;;;;;;;;;;;
2021/09/13 01:34:40;;;;;;;;;;;;;;;12.41;95.34;98090.06;1555598;91;20166;-79
2021/09/13 01:36:26;;;;;;;;;;;;;;;12.41;94.34;98091.42;1568950;83;20483;-79
2021/09/13 01:39:02;;;;;;;;;;;;;;;12.37;95.55;98088.45;1699243;84;20388;-80
2021/09/13 01:41:43;;;;;;;;;;;;;;;;;;;;;
2021/09/13 01:46:55;;;;;;;;;;;;;;;12.32;94.96;98085.81;1566870;83;20177;-83
2021/09/13 01:49:21;;;;;;;;;;;;;;;12.31;94.37;98085.55;1598984;88;20142;-83
2021/09/13 01:52:02;;;;;;;;;;;;;;;;;;;;;
2021/09/13 01:54:35;;;;;;;;;;;;;;;12.39;94.49;98089.00;1526331;91;20431;-80
2021/09/13 02:04:29;;;;;;;;;;;;;;;;;;;;;
2021/09/13 02:07:12;;;;;;;;;;;;;;;;;;;;;
2021/09/13 02:09:57;;;;;;;;;;;;;;;;;;;;;
2021/09/13 02:12:31;;;;;;;;;;;;;;;;;;;;;
2021/09/13 02:14:54;;;;;;;;;;;;;;;;;;;;;
2021/09/13 02:17:21;;;;;;;;;;;;;;;;;;;;;
2021/09/13 02:19:52;;;;;;;;;;;;;;;12.24;95.86;98097.86;1463988;97;20167;-80
2021/09/13 02:45:18;;;;;;;;;;;;;;;;;;;;;
2021/09/13 02:50:37;;;;;;;;;;;;;;;;;;;;;
2021/09/13 03:03:20;;;;;;;;;;;;;;;;;;;;;
2021/09/13 03:05:34;;;;;;;;;;;;;;;;;;;;;
2021/09/13 03:08:17;;;;;;;;;;;;;;;;;;;;;
2021/09/13 03:10:46;;;;;;;;;;;;;;;;;;;;;
2021/09/13 03:13:18;;;;;;;;;;;;;;;12.37;96.44;98113.46;1559168;90;20163;-80
2021/09/13 03:19:05;;;;;;;;;;;;;;;;;;;;;
2021/09/13 03:21:21;;;;;;;;;;;;;;;;;;;;;
2021/09/13 03:26:54;;;;;;;;;;;;;;;;;;;;;
2021/09/13 03:34:41;;;;;;;;;;;;;;;;;;;;;
2021/09/13 03:40:07;;;;;;;;;;;;;;;;;;;;;
2021/09/13 03:43:34;;;;;;;;;;;;;;;;;;;;;
2021/09/13 10:13:19;;;;;;;;;;;;;;;;;;;;;
2021/09/13 10:21:14;;;;;;;;;;;;;;;22.51;66.85;98175.19;1520457;94;20155;-81
2021/09/13 10:37:18;;;;;;;;;;;;;;;;;;;;;
2021/09/13 10:40:13;;;;;;;;;;;;;;;22.60;66.63;98154.31;1504069;94;20188;-83
2021/09/13 10:42:58;;;;;;;;;;;;;;;;;;;;;
2021/09/13 10:45:32;;;;;;;;;;;;;;;;;;;;;
2021/09/13 10:48:36;;;;;;;;;;;;;;;;;;;;;
2021/09/13 10:50:57;;;;;;;;;;;;;;;;;;;;;
2021/09/13 10:53:22;;;;;;;;;;;;;;;22.61;64.85;98150.39;1534386;91;20220;-82
2021/09/13 10:56:26;;;;;;;;;;;;;;;;;;;;;
2021/09/13 10:58:41;;;;;;;;;;;;;;;22.68;64.48;98147.02;1521278;92;20179;-82
2021/09/13 11:01:21;;;;;;;;;;;;;;;22.62;63.68;98146.47;1512406;95;20215;-82
2021/09/13 11:04:02;;;;;;;;;;;;;;;22.66;63.82;98140.47;1453344;98;20153;-80
2021/09/13 11:06:35;;;;;;;;;;;;;;;22.73;63.19;98146.18;1568743;85;20196;-80
2021/09/13 11:09:07;;;;;;;;;;;;;;;22.41;61.19;98139.83;1583445;86;20164;-81
2021/09/13 11:11:51;;;;;;;;;;;;;;;;;;;;;
2021/09/13 11:14:21;;;;;;;;;;;;;;;22.71;62.65;98148.48;1642864;86;20174;-83
2021/09/13 11:16:54;;;;;;;;;;;;;;;22.58;61.77;98148.94;1646952;85;20104;-80
2021/09/13 11:19:34;;;;;;;;;;;;;;;;;;;;;
2021/09/13 11:24:41;;;;;;;;;;;;;;;;;;;;;
2021/09/13 11:27:07;;;;;;;;;;;;;;;22.96;59.93;98144.17;1623805;86;20487;-81
2021/09/13 11:29:43;;;;;;;;;;;;;;;23.18;59.40;98137.20;1602792;88;20216;-81
2021/09/13 11:32:23;;;;;;;;;;;;;;;;;;;;;
2021/09/13 11:34:50;;;;;;;;;;;;;;;23.17;58.55;98137.78;1604745;87;20140;-81
2021/09/13 11:37:29;;;;;;;;;;;;;;;23.19;59.34;98132.70;1668287;86;20143;-81
2021/09/13 11:39:57;;;;;;;;;;;;;;;23.18;60.09;98127.53;1640517;85;20196;-80
2021/09/13 11:42:28;;;;;;;;;;;;;;;23.19;60.40;98134.66;1666159;86;20159;-82
2021/09/13 11:44:58;;;;;;;;;;;;;;;23.18;60.48;98133.86;1664429;86;21002;-81
2021/09/13 11:47:40;;;;;;;;;;;;;;;;;;;;;
2021/09/13 11:50:23;;;;;;;;;;;;;;;;;;;;;
2021/09/13 11:55:07;;;;;;;;;;;;;;;22.91;59.29;98120.41;1649571;85;20213;-83
2021/09/13 11:57:43;;;;;;;;;;;;;;;23.02;60.30;98128.94;1640628;86;20170;-81
2021/09/13 12:00:20;;;;;;;;;;;;;;;22.90;60.85;98130.41;1638501;86;20193;-80
2021/09/13 12:03:02;;;;;;;;;;;;;;;;;;;;;
2021/09/13 12:05:44;;;;;;;;;;;;;;;22.98;61.87;98124.69;1636266;87;20240;-81
2021/09/13 12:08:11;;;;;;;;;;;;;;;23.06;61.63;98110.47;1637618;86;20146;-80
2021/09/13 12:10:40;;;;;;;;;;;;;;;23.00;60.41;98113.30;1640845;87;20154;-82
2021/09/13 12:13:10;;;;;;;;;;;;;;;23.01;60.05;98108.00;1639125;86;20137;-80
2021/09/13 12:15:41;;;;;;;;;;;;;;;22.97;60.06;98110.66;1642740;85;20145;-82
2021/09/13 12:18:18;;;;;;;;;;;;;;;23.15;60.50;98113.83;1641529;85;20134;-82
2021/09/13 12:20:47;;;;;;;;;;;;;;;23.11;59.62;98108.02;1640190;85;20427;-81
2021/09/13 12:23:21;;;;;;;;;;;;;;;23.26;59.91;98110.75;1649823;86;21803;-76
2021/09/13 12:25:51;;;;;;;;;;;;;;;23.26;58.69;98101.66;1644688;86;20167;-76
2021/09/13 12:28:28;;;;;;;;;;;;;;;23.09;59.12;98104.23;1614985;89;20144;-76
2021/09/13 12:31:00;;;;;;;;;;;;;;;23.20;58.06;98106.66;1625017;86;20692;-76
2021/09/13 12:33:39;;;;;;;;;;;;;;;22.95;57.56;98103.31;1612368;87;20138;-76
2021/09/13 12:36:18;;;;;;;;;;;;;;;22.97;59.07;98104.33;1640316;85;21521;-85
2021/09/13 12:38:47;;;;;;;;;;;;;;;22.96;59.24;98104.91;1644394;86;20150;-73
2021/09/13 12:41:14;;;;;;;;;;;;;;;22.88;59.20;98107.87;1671281;85;20149;-73
2021/09/13 12:43:45;;;;;;;;;;;;;;;22.76;60.07;98105.41;1669477;86;20747;-83
2021/09/13 12:46:13;;;;;;;;;;;;;;;22.64;60.17;98109.63;1665948;84;20161;-78
2021/09/13 12:48:41;;;;;;;;;;;;;;;22.67;59.72;98108.94;1664277;85;21037;-73
2021/09/13 12:51:21;;;;;;;;;;;;;;;22.66;59.62;98107.92;1664636;86;20239;-77
2021/09/13 12:54:00;;;;;;;;;;;;;;;22.51;60.15;98102.61;1667028;84;20145;-71
2021/09/13 12:56:28;;;;;;;;;;;;;;;22.50;61.18;98105.95;1663647;86;20172;-77
2021/09/13 12:59:18;;;;;;;;;;;;;;;22.46;60.75;98097.34;1652364;86;20142;-81
2021/09/13 13:01:45;;;;;;;;;;;;;;;22.59;60.89;98091.97;1632413;88;21112;-80
2021/09/13 13:04:13;;;;;;;;;;;;;;;22.57;59.99;98097.05;1630856;88;20202;-84
2021/09/13 13:06:41;;;;;;;;;;;;;;;22.61;60.34;98093.78;1632190;88;20171;-85
2021/09/13 13:09:11;;;;;;;;;;;;;;;22.66;60.56;98091.34;1632009;88;20173;-84
2021/09/13 13:11:41;;;;;;;;;;;;;;;22.63;61.38;98101.13;1632302;88;20139;-80
2021/09/13 13:14:08;;;;;;;;;;;;;;;22.56;60.45;98096.83;1632213;88;21090;-84
2021/09/13 13:16:40;;;;;;;;;;;;;;;22.71;60.26;98093.81;1632166;88;20478;-79
2021/09/13 13:19:08;;;;;;;;;;;;;;;22.75;60.20;98087.82;1632292;88;20102;-80
2021/09/13 13:21:40;;;;;;;;;;;;;;;22.82;60.67;98092.14;1632146;86;20156;-79
2021/09/13 13:24:13;;;;;;;;;;;;;;;22.82;59.44;98090.75;1622473;88;20149;-84
2021/09/13 13:26:40;;;;;;;;;;;;;;;22.87;58.73;98091.88;1632540;88;20528;-80
2021/09/13 13:29:07;;;;;;;;;;;;;;;22.93;58.86;98089.65;1631404;88;20162;-79
2021/09/13 13:31:37;;;;;;;;;;;;;;;22.98;58.83;98089.36;1632578;88;20206;-79
2021/09/13 13:34:04;;;;;;;;;;;;;;;22.98;58.68;98087.97;1632553;88;20619;-84
2021/09/13 13:36:31;;;;;;;;;;;;;;;22.95;58.80;98088.12;1632607;88;20202;-79
2021/09/13 13:38:58;;;;;;;;;;;;;;;22.81;57.89;98091.89;1632565;88;21066;-84
2021/09/13 13:41:24;;;;;;;;;;;;;;;22.70;57.87;98094.98;1632536;88;20113;-79
2021/09/13 13:43:51;;;;;;;;;;;;;;;22.66;57.32;98088.59;1621423;88;20220;-83
2021/09/13 13:46:18;;;;;;;;;;;;;;;22.74;57.76;98088.98;1632583;88;20122;-79
2021/09/13 13:48:45;;;;;;;;;;;;;;;22.77;57.79;98089.05;1632354;88;20139;-84
2021/09/13 13:51:12;;;;;;;;;;;;;;;22.71;56.65;98088.30;1632620;88;20984;-84
2021/09/13 13:53:38;;;;;;;;;;;;;;;22.75;56.50;98087.82;1636898;86;20157;-84
2021/09/13 13:56:05;;;;;;;;;;;;;;;22.80;56.02;98086.95;1668373;86;20196;-84
2021/09/13 13:58:32;;;;;;;;;;;;;;;22.83;55.87;98084.06;1665002;84;20607;-79
2021/09/13 14:00:59;;;;;;;;;;;;;;;22.77;55.79;98082.73;1659021;86;20225;-84
2021/09/13 14:03:26;;;;;;;;;;;;;;;22.78;55.77;98083.75;1658604;85;21762;-79
2021/09/13 14:05:53;;;;;;;;;;;;;;;22.71;55.77;98086.33;1659654;86;20204;-79
2021/09/13 14:08:20;;;;;;;;;;;;;;;22.69;56.19;98082.34;1667596;86;20126;-79
2021/09/13 14:10:46;;;;;;;;;;;;;;;22.70;56.21;98075.65;1667901;86;20181;-84
2021/09/13 14:13:13;;;;;;;;;;;;;;;22.64;57.10;98079.25;1667755;86;20145;-79
2021/09/13 14:15:41;;;;;;;;;;;;;;;22.68;57.43;98080.73;1634464;87;41101;-79
2021/09/13 14:18:08;;;;;;;;;;;;;;;22.59;57.67;98074.59;1646516;87;20147;-79
2021/09/13 14:20:38;;;;;;;;;;;;;;;22.65;56.84;98074.56;1646503;86;20171;-84
2021/09/13 14:23:04;;;;;;;;;;;;;;;22.66;56.97;98083.06;1646491;87;20398;-83
2021/09/13 14:25:34;;;;;;;;;;;;;;;22.61;57.25;98082.73;1662115;86;20534;-85
2021/09/13 14:28:00;;;;;;;;;;;;;;;22.70;56.29;98084.73;1667584;86;21082;-85
2021/09/13 14:30:28;;;;;;;;;;;;;;;22.85;56.92;98085.11;1667778;86;20170;-79
2021/09/13 14:32:55;;;;;;;;;;;;;;;22.77;57.03;98089.05;1667838;86;20162;-79
2021/09/13 14:35:21;;;;;;;;;;;;;;;22.69;57.61;98100.28;1667785;86;20771;-84
2021/09/13 14:37:48;;;;;;;;;;;;;;;22.48;57.92;98092.29;1668167;85;20166;-84
2021/09/13 14:40:15;;;;;;;;;;;;;;;22.39;58.29;98099.37;1668030;86;21106;-79
2021/09/13 14:42:42;;;;;;;;;;;;;;;22.38;58.42;98099.70;1667835;86;20154;-79
2021/09/13 14:45:09;;;;;;;;;;;;;;;22.41;58.80;98101.19;1667919;84;20146;-79
2021/09/13 14:47:36;;;;;;;;;;;;;;;22.44;58.82;98099.66;1668402;86;20742;-84
2021/09/13 14:50:03;;;;;;;;;;;;;;;22.26;58.93;98104.73;1668171;84;20174;-79
2021/09/13 14:52:30;;;;;;;;;;;;;;;22.36;59.18;98106.16;1670167;85;21714;-84
2021/09/13 14:54:56;;;;;;;;;;;;;;;22.29;59.00;98108.73;1655131;86;20389;-79
2021/09/13 14:57:23;;;;;;;;;;;;;;;22.28;58.92;98112.64;1634951;87;20166;-84
2021/09/13 14:59:50;;;;;;;;;;;;;;;22.18;59.77;98125.81;1634817;88;20405;-79
2021/09/13 15:02:17;;;;;;;;;;;;;;;21.90;60.59;98136.05;1634898;88;20418;-84
2021/09/13 15:04:44;;;;;;;;;;;;;;;21.52;61.10;98135.92;1635065;88;21088;-84
2021/09/13 15:07:11;;;;;;;;;;;;;;;21.76;61.13;98137.00;1634923;88;20480;-79
2021/09/13 15:09:38;;;;;;;;;;;;;;;21.74;61.46;98143.45;1634844;88;20441;-84
2021/09/13 15:12:05;;;;;;;;;;;;;;;21.64;61.72;98142.80;1629116;86;20417;-79
2021/09/13 15:14:32;;;;;;;;;;;;;;;21.72;61.45;98143.81;1635019;87;20154;-79
2021/09/13 15:16:59;;;;;;;;;;;;;;;21.79;60.69;98139.88;1634916;88;20928;-84
2021/09/13 15:19:25;;;;;;;;;;;;;;;21.60;60.58;98138.31;1634851;88;20154;-79
2021/09/13 15:21:52;;;;;;;;;;;;;;;21.52;60.68;98135.92;1635035;88;20145;-79
2021/09/13 15:24:19;;;;;;;;;;;;;;;21.49;60.91;98141.34;1629267;87;20150;-83
2021/09/13 15:26:46;;;;;;;;;;;;;;;21.40;61.43;98136.77;1634960;88;20410;-79
2021/09/13 15:29:12;;;;;;;;;;;;;;;21.31;62.00;98140.80;1634694;88;20857;-84
2021/09/13 15:31:39;;;;;;;;;;;;;;;21.19;62.53;98141.58;1634893;88;20406;-84
2021/09/13 15:34:06;;;;;;;;;;;;;;;21.23;62.56;98141.70;1630202;87;20401;-79
2021/09/13 15:36:33;;;;;;;;;;;;;;;21.29;62.79;98148.63;1635375;88;20480;-84
2021/09/13 15:39:00;;;;;;;;;;;;;;;21.28;63.10;98142.89;1634719;88;20208;-84
2021/09/13 15:41:27;;;;;;;;;;;;;;;21.22;63.45;98142.28;1634950;87;21665;-79
2021/09/13 15:43:59;;;;;;;;;;;;;;;21.23;63.48;98145.84;1634748;88;20397;-84
2021/09/13 15:46:26;;;;;;;;;;;;;;;21.22;63.68;98145.03;1635265;88;20143;-84
2021/09/13 15:48:53;;;;;;;;;;;;;;;21.26;63.46;98154.20;1629662;87;21155;-79
2021/09/13 15:51:20;;;;;;;;;;;;;;;21.45;63.14;98156.95;1634911;88;20146;-84
2021/09/13 15:53:46;;;;;;;;;;;;;;;21.73;62.97;98163.34;1634707;88;20905;-79
2021/09/13 15:56:16;;;;;;;;;;;;;;;21.86;62.36;98159.95;1634818;86;20106;-79
2021/09/13 15:58:42;;;;;;;;;;;;;;;21.90;62.44;98158.91;1634590;88;20406;-79
2021/09/13 16:01:09;;;;;;;;;;;;;;;21.75;62.66;98156.09;1635003;88;20463;-79
2021/09/13 16:03:36;;;;;;;;;;;;;;;21.55;63.20;98161.44;1634867;88;20145;-80
2021/09/13 16:06:03;;;;;;;;;;;;;;;21.49;63.85;98154.55;1634938;87;21736;-79
2021/09/13 16:08:30;;;;;;;;;;;;;;;21.61;63.75;98154.50;1635021;88;20166;-84
2021/09/13 16:10:58;;;;;;;;;;;;;;;21.77;63.82;98153.78;1634894;88;20157;-84
2021/09/13 16:13:25;;;;;;;;;;;;;;;21.86;63.47;98152.47;1634719;88;20138;-84
2021/09/13 16:15:53;;;;;;;;;;;;;;;21.88;63.42;98154.91;1635016;88;20194;-84
2021/09/13 16:18:20;;;;;;;;;;;;;;;21.88;63.38;98155.70;1634802;88;21023;-84
2021/09/13 16:20:47;;;;;;;;;;;;;;;21.85;63.61;98153.62;1634812;87;20205;-83
2021/09/13 16:23:15;;;;;;;;;;;;;;;21.73;63.99;98155.06;1629516;87;20149;-79
2021/09/13 16:25:45;;;;;;;;;;;;;;;21.67;63.85;98157.83;1634655;88;20154;-79
2021/09/13 16:28:11;;;;;;;;;;;;;;;21.60;64.10;98157.61;1629817;87;20201;-84
2021/09/13 16:30:38;;;;;;;;;;;;;;;21.57;64.01;98159.70;1634854;88;21042;-84
2021/09/13 16:33:05;;;;;;;;;;;;;;;21.50;64.04;98158.11;1635056;87;20173;-79
2021/09/13 16:35:32;;;;;;;;;;;;;;;21.43;64.30;98156.50;1634647;88;20170;-79
2021/09/13 16:37:58;;;;;;;;;;;;;;;21.34;64.33;98164.33;1634611;87;20159;-79
2021/09/13 16:40:25;;;;;;;;;;;;;;;21.26;64.41;98163.05;1634688;87;20154;-79
2021/09/13 16:42:52;;;;;;;;;;;;;;;21.16;64.51;98162.14;1634813;88;21028;-80
2021/09/13 16:45:19;;;;;;;;;;;;;;;21.04;65.43;98162.96;1634706;88;20134;-83
2021/09/13 16:47:46;;;;;;;;;;;;;;;20.85;65.32;98162.16;1630097;86;20155;-83
2021/09/13 16:50:13;;;;;;;;;;;;;;;20.59;65.53;98158.89;1634818;88;20198;-84
2021/09/13 16:52:39;;;;;;;;;;;;;;;20.32;66.99;98161.68;1635133;88;20233;-81
2021/09/13 16:55:07;;;;;;;;;;;;;;;20.14;67.78;98168.73;1638192;86;21047;-79
2021/09/13 16:57:34;;;;;;;;;;;;;;;19.96;67.71;98168.09;1643333;87;20145;-84
2021/09/13 17:00:01;;;;;;;;;;;;;;;19.74;68.67;98173.97;1641223;87;20237;-84
2021/09/13 17:02:27;;;;;;;;;;;;;;;19.57;71.02;98173.53;1641410;87;20134;-79
2021/09/13 17:04:54;;;;;;;;;;;;;;;19.27;71.54;98173.30;1641358;87;20134;-79
2021/09/13 17:07:21;;;;;;;;;;;;;;;19.11;71.50;98173.06;1641436;85;21029;-79
2021/09/13 17:09:48;;;;;;;;;;;;;;;18.95;71.59;98171.44;1641085;85;20411;-84
2021/09/13 17:12:15;;;;;;;;;;;;;;;18.87;73.84;98174.46;1641783;87;20398;-79
2021/09/13 17:14:42;;;;;;;;;;;;;;;18.70;74.85;98175.10;1641069;86;20555;-84
2021/09/13 17:17:09;;;;;;;;;;;;;;;18.61;74.48;98177.84;1627629;87;20150;-83
2021/09/13 17:19:36;;;;;;;;;;;;;;;18.51;75.06;98180.39;1652923;87;21011;-83
2021/09/13 17:22:03;;;;;;;;;;;;;;;18.40;76.06;98175.59;1641333;86;20158;-84
2021/09/13 17:24:30;;;;;;;;;;;;;;;18.23;77.99;98182.72;1641132;87;20141;-81
2021/09/13 17:26:56;;;;;;;;;;;;;;;18.20;77.24;98185.30;1641716;87;20150;-84
2021/09/13 17:29:23;;;;;;;;;;;;;;;18.10;76.61;98182.90;1641302;87;20131;-79
2021/09/13 17:31:50;;;;;;;;;;;;;;;17.98;77.23;98183.00;1641480;85;21028;-79
2021/09/13 17:34:17;;;;;;;;;;;;;;;17.84;80.75;98187.03;1641335;85;20150;-79
2021/09/13 17:36:44;;;;;;;;;;;;;;;17.80;77.86;98188.82;1628469;86;20218;-84
2021/09/13 17:39:11;;;;;;;;;;;;;;;17.81;77.51;98196.72;1619332;87;20201;-79
2021/09/13 17:41:38;;;;;;;;;;;;;;;17.78;77.11;98195.19;1641725;87;20389;-83
2021/09/13 17:44:05;;;;;;;;;;;;;;;17.66;80.74;98200.70;1641183;87;21699;-79
2021/09/13 17:46:32;;;;;;;;;;;;;;;17.53;79.75;98200.30;1641314;85;20166;-84
2021/09/13 17:48:59;;;;;;;;;;;;;;;17.36;82.22;98192.06;1641195;87;20166;-79
2021/09/13 17:51:26;;;;;;;;;;;;;;;17.25;80.31;98206.59;1641436;87;20538;-84
2021/09/13 17:53:52;;;;;;;;;;;;;;;17.16;79.10;98207.13;1641228;85;20173;-79
2021/09/13 17:56:20;;;;;;;;;;;;;;;17.07;80.01;98213.15;1643483;85;21255;-84
2021/09/13 17:58:51;;;;;;;;;;;;;;;16.94;83.28;98206.68;1640472;85;20126;-79
2021/09/13 18:01:19;;;;;;;;;;;;;;;16.91;79.64;98213.57;1634821;88;20151;-84
2021/09/13 18:03:46;;;;;;;;;;;;;;;16.82;83.36;98220.14;1634627;88;20126;-79
2021/09/13 18:06:13;;;;;;;;;;;;;;;16.74;81.68;98218.16;1634855;88;20145;-79
2021/09/13 18:08:40;;;;;;;;;;;;;;;16.71;80.20;98219.61;1634767;88;20995;-79
2021/09/13 18:11:06;;;;;;;;;;;;;;;16.63;84.64;98226.63;1629819;87;20138;-79
2021/09/13 18:13:33;;;;;;;;;;;;;;;16.61;82.03;98226.70;1634949;88;20150;-84
2021/09/13 18:16:00;;;;;;;;;;;;;;;16.55;81.46;98225.20;1631320;87;20363;-79
2021/09/13 18:18:27;;;;;;;;;;;;;;;16.53;85.67;98234.30;1634896;88;20161;-79
2021/09/13 18:20:54;;;;;;;;;;;;;;;16.54;83.32;98238.64;1629761;87;21621;-79
2021/09/13 18:23:21;;;;;;;;;;;;;;;16.49;82.79;98233.29;1634783;88;20442;-83
2021/09/13 18:25:48;;;;;;;;;;;;;;;16.46;83.25;98238.83;1635321;88;20394;-83
2021/09/13 18:28:17;;;;;;;;;;;;;;;16.41;82.43;98236.25;1634952;88;20567;-79
2021/09/13 18:30:44;;;;;;;;;;;;;;;16.31;86.37;98235.11;1634749;88;20147;-83
2021/09/13 18:33:11;;;;;;;;;;;;;;;16.28;83.95;98243.95;1634941;87;21026;-84
2021/09/13 18:35:38;;;;;;;;;;;;;;;16.22;84.17;98243.81;1634786;88;20631;-79
2021/09/13 18:38:05;;;;;;;;;;;;;;;16.13;86.86;98247.05;1635443;88;20393;-84
2021/09/13 18:40:36;;;;;;;;;;;;;;;16.06;87.21;98249.67;1634784;88;20654;-79
2021/09/13 18:43:03;;;;;;;;;;;;;;;16.05;85.82;98250.77;1634986;87;20154;-79
2021/09/13 18:45:30;;;;;;;;;;;;;;;15.98;84.55;98250.94;1634735;88;21017;-83
2021/09/13 18:47:58;;;;;;;;;;;;;;;15.95;85.76;98250.20;1634916;88;20143;-84
2021/09/13 18:50:25;;;;;;;;;;;;;;;15.91;84.75;98250.59;1634712;88;20158;-79
2021/09/13 18:52:54;;;;;;;;;;;;;;;15.79;84.81;98251.91;1635022;88;20142;-85
2021/09/13 18:55:22;;;;;;;;;;;;;;;15.68;85.46;98257.36;1634621;86;20201;-82
2021/09/13 18:57:50;;;;;;;;;;;;;;;15.64;85.72;98256.94;1634698;88;21155;-84
2021/09/13 19:00:17;;;;;;;;;;;;;;;15.56;86.72;98259.80;1634681;88;20449;-79
2021/09/13 19:02:46;;;;;;;;;;;;;;;15.52;87.16;98257.41;1634858;88;20159;-84
2021/09/13 19:05:13;;;;;;;;;;;;;;;15.48;85.60;98256.42;1634734;88;20590;-84
2021/09/13 19:07:43;;;;;;;;;;;;;;;15.49;86.06;98263.50;1634803;88;20393;-84
2021/09/13 19:10:10;;;;;;;;;;;;;;;15.42;86.01;98261.17;1630011;86;21547;-84
2021/09/13 19:12:38;;;;;;;;;;;;;;;15.35;86.92;98258.59;1634648;87;20146;-79
2021/09/13 19:15:06;;;;;;;;;;;;;;;15.32;85.87;98261.39;1634793;88;20151;-79
2021/09/13 19:17:33;;;;;;;;;;;;;;;15.24;87.28;98264.83;1634838;88;20172;-84
2021/09/13 19:20:01;;;;;;;;;;;;;;;15.18;88.18;98266.03;1629219;87;20130;-84
2021/09/13 19:22:27;;;;;;;;;;;;;;;15.15;86.83;98262.56;1634803;88;20966;-84
2021/09/13 19:24:54;;;;;;;;;;;;;;;15.17;88.75;98265.78;1634396;87;20163;-79
2021/09/13 19:27:21;;;;;;;;;;;;;;;15.18;87.93;98267.40;1634805;88;20174;-79
2021/09/13 19:29:48;;;;;;;;;;;;;;;15.15;87.62;98265.28;1634669;88;20146;-84
2021/09/13 19:32:14;;;;;;;;;;;;;;;15.10;86.91;98267.55;1634876;87;20146;-84
2021/09/13 19:34:41;;;;;;;;;;;;;;;15.05;87.91;98269.59;1634811;88;20986;-79
2021/09/13 19:37:08;;;;;;;;;;;;;;;15.02;86.79;98274.27;1629746;87;20155;-79
2021/09/13 19:39:35;;;;;;;;;;;;;;;14.97;87.80;98279.84;1634790;87;20212;-84
2021/09/13 19:42:02;;;;;;;;;;;;;;;14.98;87.12;98278.72;1634828;88;20453;-84
2021/09/13 19:44:28;;;;;;;;;;;;;;;14.98;88.40;98281.45;1634678;88;20451;-84
2021/09/13 19:46:55;;;;;;;;;;;;;;;14.95;88.68;98277.39;1629136;87;21411;-79
2021/09/13 19:49:22;;;;;;;;;;;;;;;14.94;87.12;98277.94;1634994;88;20461;-79
2021/09/13 19:51:49;;;;;;;;;;;;;;;14.89;88.31;98279.42;1634822;88;20134;-84
2021/09/13 19:54:16;;;;;;;;;;;;;;;14.83;88.24;98279.25;1634678;88;20687;-79
2021/09/13 19:56:43;;;;;;;;;;;;;;;14.77;87.55;98283.17;1629669;87;20154;-84
2021/09/13 19:59:10;;;;;;;;;;;;;;;14.64;89.91;98278.52;1635029;88;21584;-79
2021/09/13 20:01:37;;;;;;;;;;;;;;;14.58;89.20;98279.70;1634747;88;20170;-79
2021/09/13 20:04:04;;;;;;;;;;;;;;;14.50;88.55;98284.48;1634767;87;20146;-84
2021/09/13 20:06:32;;;;;;;;;;;;;;;14.42;88.08;98281.84;1634924;88;20183;-79
2021/09/13 20:08:59;;;;;;;;;;;;;;;14.42;88.10;98281.84;1634744;88;20166;-79
2021/09/13 20:11:26;;;;;;;;;;;;;;;14.45;88.23;98285.91;1634813;88;20875;-84
2021/09/13 20:13:53;;;;;;;;;;;;;;;14.42;88.62;98285.13;1634668;88;20143;-79
2021/09/13 20:16:20;;;;;;;;;;;;;;;14.34;89.87;98286.61;1634881;87;20167;-84
2021/09/13 20:18:47;;;;;;;;;;;;;;;14.32;89.27;98291.55;1635080;88;20134;-78
2021/09/13 20:21:13;;;;;;;;;;;;;;;14.32;89.48;98296.45;1634857;88;20138;-79
2021/09/13 20:23:41;;;;;;;;;;;;;;;14.33;89.10;98298.07;1634989;88;21055;-79
2021/09/13 20:26:09;;;;;;;;;;;;;;;14.32;90.00;98291.55;1634716;87;20181;-83
2021/09/13 20:28:35;;;;;;;;;;;;;;;14.32;89.44;98297.01;1634760;88;20191;-79
2021/09/13 20:31:02;;;;;;;;;;;;;;;14.32;89.92;98291.55;1634815;88;20138;-79
2021/09/13 20:33:29;;;;;;;;;;;;;;;14.32;88.86;98297.01;1634789;88;20146;-84
2021/09/13 20:35:56;;;;;;;;;;;;;;;14.29;89.35;98300.34;1634542;87;21042;-84
2021/09/13 20:38:23;;;;;;;;;;;;;;;14.22;89.53;98299.34;1634706;88;20168;-84
2021/09/13 20:40:50;;;;;;;;;;;;;;;14.18;89.54;98298.86;1634523;88;20174;-84
2021/09/13 20:43:17;;;;;;;;;;;;;;;14.18;89.14;98307.03;1629383;87;20131;-78
2021/09/13 20:45:44;;;;;;;;;;;;;;;14.17;88.49;98304.86;1634540;88;20174;-79
2021/09/13 20:48:11;;;;;;;;;;;;;;;14.10;88.95;98305.27;1629346;87;21482;-84
2021/09/13 20:50:37;;;;;;;;;;;;;;;14.09;88.30;98302.80;1629409;87;20163;-79
2021/09/13 20:53:04;;;;;;;;;;;;;;;14.07;89.34;98302.30;1634796;88;20142;-79
2021/09/13 20:55:31;;;;;;;;;;;;;;;14.06;88.49;98302.05;1634702;86;20225;-78
2021/09/13 20:57:58;;;;;;;;;;;;;;;14.04;87.98;98302.34;1634586;88;20171;-84
2021/09/13 21:00:25;;;;;;;;;;;;;;;14.01;87.33;98304.28;1634656;88;21013;-84
2021/09/13 21:02:52;;;;;;;;;;;;;;;13.96;87.78;98304.92;1635161;87;20154;-84
2021/09/13 21:05:19;;;;;;;;;;;;;;;13.89;88.23;98306.65;1630549;87;20138;-79
2021/09/13 21:07:46;;;;;;;;;;;;;;;13.86;88.35;98306.44;1634951;87;20126;-79
2021/09/13 21:10:13;;;;;;;;;;;;;;;13.78;88.76;98313.34;1634645;88;20141;-81
2021/09/13 21:12:39;;;;;;;;;;;;;;;13.68;89.22;98306.69;1634747;88;20965;-79
2021/09/13 21:15:07;;;;;;;;;;;;;;;13.69;88.26;98308.30;1634524;88;20422;-84
2021/09/13 21:17:34;;;;;;;;;;;;;;;13.66;88.60;98310.22;1634747;88;20154;-84
2021/09/13 21:20:01;;;;;;;;;;;;;;;13.63;88.72;98314.35;1634646;88;20608;-79
2021/09/13 21:22:28;;;;;;;;;;;;;;;13.60;89.52;98312.78;1634511;88;20138;-83
2021/09/13 21:24:55;;;;;;;;;;;;;;;13.48;89.55;98314.53;1634602;88;21003;-83
2021/09/13 21:27:21;;;;;;;;;;;;;;;13.43;89.56;98316.79;1634650;88;20189;-79
2021/09/13 21:29:48;;;;;;;;;;;;;;;13.38;89.98;98314.12;1634823;88;20175;-79
2021/09/13 21:32:15;;;;;;;;;;;;;;;13.35;90.04;98317.43;1634734;88;20166;-79
2021/09/13 21:34:42;;;;;;;;;;;;;;;13.36;90.24;98319.59;1628989;88;20155;-84
2021/09/13 21:37:09;;;;;;;;;;;;;;;13.35;88.29;98317.43;1634845;88;20961;-79
2021/09/13 21:39:36;;;;;;;;;;;;;;;13.29;89.54;98314.50;1634509;87;20350;-79
2021/09/13 21:42:04;;;;;;;;;;;;;;;13.24;88.30;98321.34;1630188;86;20201;-83
2021/09/13 21:44:30;;;;;;;;;;;;;;;13.19;88.98;98319.52;1634615;87;20189;-79
2021/09/13 21:46:57;;;;;;;;;;;;;;;13.21;90.81;98324.66;1634926;88;20171;-83
2021/09/13 21:49:25;;;;;;;;;;;;;;;13.26;90.94;98328.14;1634786;88;20972;-79
2021/09/13 21:51:52;;;;;;;;;;;;;;;13.33;90.04;98322.36;1635229;88;20158;-81
2021/09/13 21:54:19;;;;;;;;;;;;;;;13.38;91.13;98322.83;1629239;87;20154;-84
2021/09/13 21:56:46;;;;;;;;;;;;;;;13.36;91.45;98324.49;1639072;86;20153;-84
2021/09/13 21:59:12;;;;;;;;;;;;;;;13.29;92.34;98313.69;1643713;87;20175;-79
2021/09/13 22:01:40;;;;;;;;;;;;;;;13.32;92.52;98318.54;1616648;87;22235;-79
2021/09/13 22:04:07;;;;;;;;;;;;;;;13.35;90.22;98313.90;1643542;87;20141;-79
2021/09/13 22:06:34;;;;;;;;;;;;;;;13.28;91.63;98314.80;1641487;85;20137;-79
2021/09/13 22:09:00;;;;;;;;;;;;;;;13.23;92.28;98311.02;1641460;85;20240;-83
2021/09/13 22:11:27;;;;;;;;;;;;;;;13.24;91.54;98311.30;1641157;87;20420;-84
2021/09/13 22:13:54;;;;;;;;;;;;;;;13.23;91.86;98311.02;1641410;85;21024;-84
2021/09/13 22:16:21;;;;;;;;;;;;;;;13.28;89.89;98318.88;1641353;87;20172;-79
2021/09/13 22:18:48;;;;;;;;;;;;;;;13.26;89.40;98311.81;1641559;87;20166;-84